sensor_id;sensor_type;location;lat;lon;timestamp;P1;durP1;ratioP1;P2;durP2;ratioP2
56824;SDS011;42705;50.326;18.772;2024-03-07T00:03:59;29.70;;;14.70;;
56824;SDS011;42705;50.326;18.772;2024-03-07T00:09:21;32.60;;;16.80;;
56824;SDS011;42705;50.326;18.772;2024-03-07T00:14:45;28.70;;;13.00;;
56824;SDS011;42705;50.326;18.772;2024-03-07T00:20:08;39.20;;;17.00;;
56824;SDS011;42705;50.326;18.772;2024-03-07T00:25:31;34.90;;;18.00;;
56824;SDS011;42705;50.326;18.772;2024-03-07T00:30:53;33.60;;;16.00;;
56824;SDS011;42705;50.326;18.772;2024-03-07T00:36:16;33.80;;;15.60;;
56824;SDS011;42705;50.326;18.772;2024-03-07T00:41:41;26.60;;;14.30;;
56824;SDS011;42705;50.326;18.772;2024-03-07T00:47:03;27.00;;;14.20;;
56824;SDS011;42705;50.326;18.772;2024-03-07T00:52:26;30.60;;;15.20;;
56824;SDS011;42705;50.326;18.772;2024-03-07T00:57:48;27.10;;;14.30;;
56824;SDS011;42705;50.326;18.772;2024-03-07T01:03:10;32.70;;;16.40;;
56824;SDS011;42705;50.326;18.772;2024-03-07T01:08:32;28.60;;;14.60;;
56824;SDS011;42705;50.326;18.772;2024-03-07T01:13:56;28.20;;;13.40;;
56824;SDS011;42705;50.326;18.772;2024-03-07T01:19:18;30.60;;;14.20;;
56824;SDS011;42705;50.326;18.772;2024-03-07T01:24:40;36.40;;;16.70;;
56824;SDS011;42705;50.326;18.772;2024-03-07T01:30:01;30.90;;;14.70;;
56824;SDS011;42705;50.326;18.772;2024-03-07T01:35:24;32.00;;;14.20;;
56824;SDS011;42705;50.326;18.772;2024-03-07T01:40:46;32.60;;;15.70;;
56824;SDS011;42705;50.326;18.772;2024-03-07T01:46:08;31.20;;;15.60;;
56824;SDS011;42705;50.326;18.772;2024-03-07T01:51:31;28.60;;;14.20;;
56824;SDS011;42705;50.326;18.772;2024-03-07T01:56:53;34.60;;;16.40;;
56824;SDS011;42705;50.326;18.772;2024-03-07T02:02:17;33.30;;;15.70;;
56824;SDS011;42705;50.326;18.772;2024-03-07T02:07:42;37.70;;;17.90;;
56824;SDS011;42705;50.326;18.772;2024-03-07T02:13:05;41.90;;;18.30;;
56824;SDS011;42705;50.326;18.772;2024-03-07T02:18:26;39.70;;;19.60;;
56824;SDS011;42705;50.326;18.772;2024-03-07T02:23:49;40.60;;;17.60;;
56824;SDS011;42705;50.326;18.772;2024-03-07T02:29:11;34.60;;;16.30;;
56824;SDS011;42705;50.326;18.772;2024-03-07T02:34:33;35.10;;;16.00;;
56824;SDS011;42705;50.326;18.772;2024-03-07T02:39:55;37.90;;;18.10;;
56824;SDS011;42705;50.326;18.772;2024-03-07T02:45:17;38.80;;;17.70;;
56824;SDS011;42705;50.326;18.772;2024-03-07T02:50:39;31.80;;;15.10;;
56824;SDS011;42705;50.326;18.772;2024-03-07T02:56:01;36.00;;;16.10;;
56824;SDS011;42705;50.326;18.772;2024-03-07T03:01:23;38.00;;;18.40;;
56824;SDS011;42705;50.326;18.772;2024-03-07T03:06:46;34.00;;;17.10;;
56824;SDS011;42705;50.326;18.772;2024-03-07T03:12:08;37.30;;;18.00;;
56824;SDS011;42705;50.326;18.772;2024-03-07T03:17:31;31.50;;;15.80;;
56824;SDS011;42705;50.326;18.772;2024-03-07T03:29:11;32.00;;;15.10;;
56824;SDS011;42705;50.326;18.772;2024-03-07T03:34:33;29.40;;;16.70;;
56824;SDS011;42705;50.326;18.772;2024-03-07T03:39:55;35.10;;;16.60;;
56824;SDS011;42705;50.326;18.772;2024-03-07T03:45:17;34.40;;;17.10;;
56824;SDS011;42705;50.326;18.772;2024-03-07T03:50:39;30.70;;;15.10;;
56824;SDS011;42705;50.326;18.772;2024-03-07T03:56:01;32.10;;;15.80;;
56824;SDS011;42705;50.326;18.772;2024-03-07T04:01:26;34.00;;;16.60;;
56824;SDS011;42705;50.326;18.772;2024-03-07T04:06:47;26.20;;;13.50;;
56824;SDS011;42705;50.326;18.772;2024-03-07T04:12:09;28.80;;;15.40;;
56824;SDS011;42705;50.326;18.772;2024-03-07T04:17:35;28.70;;;14.30;;
56824;SDS011;42705;50.326;18.772;2024-03-07T04:22:57;24.50;;;12.40;;
56824;SDS011;42705;50.326;18.772;2024-03-07T04:28:19;30.00;;;13.70;;
56824;SDS011;42705;50.326;18.772;2024-03-07T04:33:42;28.10;;;14.00;;
56824;SDS011;42705;50.326;18.772;2024-03-07T04:39:04;24.10;;;13.10;;
56824;SDS011;42705;50.326;18.772;2024-03-07T04:44:27;30.90;;;14.30;;
56824;SDS011;42705;50.326;18.772;2024-03-07T04:49:49;24.40;;;13.70;;
56824;SDS011;42705;50.326;18.772;2024-03-07T04:55:11;27.30;;;13.70;;
56824;SDS011;42705;50.326;18.772;2024-03-07T05:00:33;27.70;;;14.60;;
56824;SDS011;42705;50.326;18.772;2024-03-07T05:05:54;31.20;;;17.20;;
56824;SDS011;42705;50.326;18.772;2024-03-07T05:11:16;23.10;;;13.10;;
56824;SDS011;42705;50.326;18.772;2024-03-07T05:16:38;23.90;;;13.50;;
56824;SDS011;42705;50.326;18.772;2024-03-07T05:22:01;31.80;;;15.60;;
56824;SDS011;42705;50.326;18.772;2024-03-07T05:27:26;29.90;;;14.50;;
56824;SDS011;42705;50.326;18.772;2024-03-07T05:38:11;32.80;;;15.50;;
56824;SDS011;42705;50.326;18.772;2024-03-07T05:43:33;36.20;;;18.80;;
56824;SDS011;42705;50.326;18.772;2024-03-07T05:48:55;33.90;;;16.80;;
56824;SDS011;42705;50.326;18.772;2024-03-07T05:54:18;32.00;;;17.50;;
56824;SDS011;42705;50.326;18.772;2024-03-07T05:59:40;29.00;;;15.10;;
56824;SDS011;42705;50.326;18.772;2024-03-07T06:05:02;29.30;;;15.80;;
56824;SDS011;42705;50.326;18.772;2024-03-07T06:10:25;31.60;;;17.40;;
56824;SDS011;42705;50.326;18.772;2024-03-07T06:15:47;31.30;;;15.90;;
56824;SDS011;42705;50.326;18.772;2024-03-07T06:21:09;28.30;;;14.90;;
56824;SDS011;42705;50.326;18.772;2024-03-07T06:26:32;27.80;;;14.70;;
56824;SDS011;42705;50.326;18.772;2024-03-07T06:31:59;32.40;;;16.30;;
56824;SDS011;42705;50.326;18.772;2024-03-07T06:37:21;26.60;;;14.90;;
56824;SDS011;42705;50.326;18.772;2024-03-07T06:42:43;32.50;;;17.10;;
56824;SDS011;42705;50.326;18.772;2024-03-07T06:48:06;26.90;;;14.40;;
56824;SDS011;42705;50.326;18.772;2024-03-07T06:53:29;26.50;;;15.10;;
56824;SDS011;42705;50.326;18.772;2024-03-07T06:58:51;29.50;;;15.50;;
56824;SDS011;42705;50.326;18.772;2024-03-07T07:04:13;32.10;;;16.60;;
56824;SDS011;42705;50.326;18.772;2024-03-07T07:09:36;25.20;;;14.10;;
56824;SDS011;42705;50.326;18.772;2024-03-07T07:14:58;24.00;;;14.30;;
56824;SDS011;42705;50.326;18.772;2024-03-07T07:20:20;25.10;;;13.60;;
56824;SDS011;42705;50.326;18.772;2024-03-07T07:25:42;29.10;;;15.40;;
56824;SDS011;42705;50.326;18.772;2024-03-07T07:31:04;26.20;;;13.90;;
56824;SDS011;42705;50.326;18.772;2024-03-07T07:36:27;27.70;;;14.60;;
56824;SDS011;42705;50.326;18.772;2024-03-07T07:41:49;28.30;;;16.10;;
56824;SDS011;42705;50.326;18.772;2024-03-07T07:47:11;25.90;;;13.70;;
56824;SDS011;42705;50.326;18.772;2024-03-07T07:52:33;24.90;;;14.40;;
56824;SDS011;42705;50.326;18.772;2024-03-07T07:57:57;30.90;;;15.70;;
56824;SDS011;42705;50.326;18.772;2024-03-07T08:03:20;27.50;;;14.90;;
56824;SDS011;42705;50.326;18.772;2024-03-07T08:08:43;24.40;;;13.80;;
56824;SDS011;42705;50.326;18.772;2024-03-07T08:14:05;30.40;;;14.80;;
56824;SDS011;42705;50.326;18.772;2024-03-07T08:19:27;30.10;;;15.60;;
56824;SDS011;42705;50.326;18.772;2024-03-07T08:24:49;30.90;;;16.30;;
56824;SDS011;42705;50.326;18.772;2024-03-07T08:30:12;35.50;;;17.80;;
56824;SDS011;42705;50.326;18.772;2024-03-07T08:35:37;32.20;;;15.80;;
56824;SDS011;42705;50.326;18.772;2024-03-07T08:40:58;27.60;;;14.20;;
56824;SDS011;42705;50.326;18.772;2024-03-07T08:46:21;33.60;;;16.50;;
56824;SDS011;42705;50.326;18.772;2024-03-07T08:51:43;32.90;;;16.10;;
56824;SDS011;42705;50.326;18.772;2024-03-07T08:57:05;32.10;;;15.80;;
56824;SDS011;42705;50.326;18.772;2024-03-07T09:02:29;38.50;;;16.40;;
56824;SDS011;42705;50.326;18.772;2024-03-07T09:07:51;31.00;;;17.00;;
56824;SDS011;42705;50.326;18.772;2024-03-07T09:13:14;31.60;;;14.80;;
56824;SDS011;42705;50.326;18.772;2024-03-07T09:18:36;30.50;;;17.10;;
56824;SDS011;42705;50.326;18.772;2024-03-07T09:23:58;32.00;;;16.60;;
56824;SDS011;42705;50.326;18.772;2024-03-07T09:29:20;36.10;;;17.80;;
56824;SDS011;42705;50.326;18.772;2024-03-07T09:34:43;38.50;;;17.80;;
56824;SDS011;42705;50.326;18.772;2024-03-07T09:40:06;36.00;;;18.00;;
56824;SDS011;42705;50.326;18.772;2024-03-07T09:45:32;39.00;;;18.90;;
56824;SDS011;42705;50.326;18.772;2024-03-07T09:50:56;31.00;;;16.00;;
56824;SDS011;42705;50.326;18.772;2024-03-07T09:56:21;32.10;;;16.80;;
56824;SDS011;42705;50.326;18.772;2024-03-07T10:01:43;30.60;;;16.00;;
56824;SDS011;42705;50.326;18.772;2024-03-07T10:07:08;34.90;;;17.70;;
56824;SDS011;42705;50.326;18.772;2024-03-07T10:12:33;36.80;;;18.30;;
56824;SDS011;42705;50.326;18.772;2024-03-07T10:17:57;28.40;;;16.00;;
56824;SDS011;42705;50.326;18.772;2024-03-07T10:23:20;32.00;;;16.00;;
56824;SDS011;42705;50.326;18.772;2024-03-07T10:28:42;34.20;;;17.20;;
56824;SDS011;42705;50.326;18.772;2024-03-07T10:34:05;34.00;;;18.30;;
56824;SDS011;42705;50.326;18.772;2024-03-07T10:39:29;35.50;;;17.90;;
56824;SDS011;42705;50.326;18.772;2024-03-07T10:44:53;36.80;;;17.70;;
56824;SDS011;42705;50.326;18.772;2024-03-07T11:07:45;36.40;;;18.30;;
56824;SDS011;42705;50.326;18.772;2024-03-07T11:13:09;35.50;;;19.80;;
56824;SDS011;42705;50.326;18.772;2024-03-07T11:18:34;34.80;;;19.20;;
56824;SDS011;42705;50.326;18.772;2024-03-07T11:23:56;39.80;;;19.90;;
56824;SDS011;42705;50.326;18.772;2024-03-07T11:35:05;33.00;;;17.60;;
56824;SDS011;42705;50.326;18.772;2024-03-07T11:45:58;34.20;;;18.00;;
56824;SDS011;42705;50.326;18.772;2024-03-07T11:51:21;38.90;;;20.10;;
56824;SDS011;42705;50.326;18.772;2024-03-07T11:56:46;38.10;;;20.40;;
56824;SDS011;42705;50.326;18.772;2024-03-07T12:02:13;34.50;;;18.70;;
56824;SDS011;42705;50.326;18.772;2024-03-07T12:07:37;33.30;;;17.30;;
56824;SDS011;42705;50.326;18.772;2024-03-07T12:12:59;34.90;;;18.40;;
56824;SDS011;42705;50.326;18.772;2024-03-07T12:18:23;32.20;;;17.80;;
56824;SDS011;42705;50.326;18.772;2024-03-07T12:23:46;34.70;;;17.20;;
56824;SDS011;42705;50.326;18.772;2024-03-07T12:29:09;33.40;;;16.60;;
56824;SDS011;42705;50.326;18.772;2024-03-07T12:34:36;31.70;;;17.10;;
56824;SDS011;42705;50.326;18.772;2024-03-07T12:40:10;37.80;;;19.30;;
56824;SDS011;42705;50.326;18.772;2024-03-07T12:45:42;30.70;;;17.40;;
56824;SDS011;42705;50.326;18.772;2024-03-07T12:51:06;32.20;;;17.70;;
56824;SDS011;42705;50.326;18.772;2024-03-07T12:56:28;29.80;;;15.20;;
56824;SDS011;42705;50.326;18.772;2024-03-07T13:01:56;27.30;;;16.00;;
56824;SDS011;42705;50.326;18.772;2024-03-07T13:07:18;27.30;;;14.50;;
56824;SDS011;42705;50.326;18.772;2024-03-07T13:12:43;31.00;;;15.70;;
56824;SDS011;42705;50.326;18.772;2024-03-07T13:18:07;30.80;;;15.70;;
56824;SDS011;42705;50.326;18.772;2024-03-07T13:23:30;30.30;;;16.80;;
56824;SDS011;42705;50.326;18.772;2024-03-07T13:28:54;29.80;;;15.90;;
56824;SDS011;42705;50.326;18.772;2024-03-07T13:34:17;34.80;;;16.70;;
56824;SDS011;42705;50.326;18.772;2024-03-07T13:39:41;28.10;;;15.00;;
56824;SDS011;42705;50.326;18.772;2024-03-07T13:45:05;30.50;;;14.70;;
56824;SDS011;42705;50.326;18.772;2024-03-07T13:50:27;26.60;;;14.30;;
56824;SDS011;42705;50.326;18.772;2024-03-07T14:12:44;34.40;;;17.50;;
56824;SDS011;42705;50.326;18.772;2024-03-07T14:47:19;25.10;;;13.00;;
56824;SDS011;42705;50.326;18.772;2024-03-07T14:58:04;21.30;;;10.50;;
56824;SDS011;42705;50.326;18.772;2024-03-07T15:03:27;24.90;;;11.00;;
56824;SDS011;42705;50.326;18.772;2024-03-07T15:08:51;18.40;;;9.60;;
56824;SDS011;42705;50.326;18.772;2024-03-07T15:14:14;20.50;;;11.60;;
56824;SDS011;42705;50.326;18.772;2024-03-07T15:19:37;21.40;;;11.20;;
56824;SDS011;42705;50.326;18.772;2024-03-07T15:24:59;27.40;;;13.10;;
56824;SDS011;42705;50.326;18.772;2024-03-07T15:30:24;24.30;;;12.50;;
56824;SDS011;42705;50.326;18.772;2024-03-07T15:41:14;23.10;;;11.80;;
56824;SDS011;42705;50.326;18.772;2024-03-07T15:46:36;20.70;;;11.30;;
56824;SDS011;42705;50.326;18.772;2024-03-07T15:51:59;21.70;;;10.70;;
56824;SDS011;42705;50.326;18.772;2024-03-07T15:57:21;24.80;;;11.90;;
56824;SDS011;42705;50.326;18.772;2024-03-07T16:02:43;28.40;;;12.90;;
56824;SDS011;42705;50.326;18.772;2024-03-07T16:08:06;29.00;;;13.80;;
56824;SDS011;42705;50.326;18.772;2024-03-07T16:13:40;28.00;;;12.10;;
56824;SDS011;42705;50.326;18.772;2024-03-07T16:24:26;19.90;;;10.50;;
56824;SDS011;42705;50.326;18.772;2024-03-07T16:29:48;26.30;;;13.40;;
56824;SDS011;42705;50.326;18.772;2024-03-07T16:35:10;25.50;;;13.30;;
56824;SDS011;42705;50.326;18.772;2024-03-07T16:40:33;29.50;;;14.80;;
56824;SDS011;42705;50.326;18.772;2024-03-07T16:45:55;46.70;;;15.80;;
56824;SDS011;42705;50.326;18.772;2024-03-07T16:51:16;31.50;;;15.10;;
56824;SDS011;42705;50.326;18.772;2024-03-07T16:56:38;32.80;;;14.00;;
56824;SDS011;42705;50.326;18.772;2024-03-07T17:02:02;27.30;;;13.70;;
56824;SDS011;42705;50.326;18.772;2024-03-07T17:07:28;30.80;;;15.80;;
56824;SDS011;42705;50.326;18.772;2024-03-07T17:12:50;36.70;;;18.60;;
56824;SDS011;42705;50.326;18.772;2024-03-07T17:18:13;34.60;;;18.00;;
56824;SDS011;42705;50.326;18.772;2024-03-07T17:23:34;28.80;;;15.00;;
56824;SDS011;42705;50.326;18.772;2024-03-07T17:28:56;29.00;;;14.30;;
56824;SDS011;42705;50.326;18.772;2024-03-07T17:34:19;39.80;;;18.20;;
56824;SDS011;42705;50.326;18.772;2024-03-07T17:39:41;31.70;;;15.80;;
56824;SDS011;42705;50.326;18.772;2024-03-07T17:45:03;30.30;;;16.10;;
56824;SDS011;42705;50.326;18.772;2024-03-07T17:50:33;30.40;;;15.40;;
56824;SDS011;42705;50.326;18.772;2024-03-07T17:55:55;34.90;;;16.40;;
56824;SDS011;42705;50.326;18.772;2024-03-07T18:01:17;30.20;;;16.80;;
56824;SDS011;42705;50.326;18.772;2024-03-07T18:06:39;26.90;;;14.30;;
56824;SDS011;42705;50.326;18.772;2024-03-07T18:12:01;33.50;;;17.10;;
56824;SDS011;42705;50.326;18.772;2024-03-07T18:17:23;35.90;;;18.30;;
56824;SDS011;42705;50.326;18.772;2024-03-07T18:22:45;36.30;;;17.70;;
56824;SDS011;42705;50.326;18.772;2024-03-07T18:28:12;35.20;;;18.30;;
56824;SDS011;42705;50.326;18.772;2024-03-07T18:33:36;41.40;;;20.00;;
56824;SDS011;42705;50.326;18.772;2024-03-07T18:38:57;39.40;;;19.60;;
56824;SDS011;42705;50.326;18.772;2024-03-07T18:44:19;36.20;;;18.70;;
56824;SDS011;42705;50.326;18.772;2024-03-07T18:49:42;39.30;;;21.40;;
56824;SDS011;42705;50.326;18.772;2024-03-07T18:55:08;35.70;;;19.40;;
56824;SDS011;42705;50.326;18.772;2024-03-07T19:00:50;38.40;;;20.70;;
56824;SDS011;42705;50.326;18.772;2024-03-07T19:06:14;36.30;;;20.10;;
56824;SDS011;42705;50.326;18.772;2024-03-07T19:11:44;41.60;;;20.90;;
56824;SDS011;42705;50.326;18.772;2024-03-07T19:17:07;41.80;;;23.20;;
56824;SDS011;42705;50.326;18.772;2024-03-07T19:22:30;44.00;;;24.00;;
56824;SDS011;42705;50.326;18.772;2024-03-07T19:27:55;39.80;;;21.50;;
56824;SDS011;42705;50.326;18.772;2024-03-07T19:33:20;39.90;;;21.20;;
56824;SDS011;42705;50.326;18.772;2024-03-07T19:38:43;40.90;;;22.50;;
56824;SDS011;42705;50.326;18.772;2024-03-07T19:44:07;42.50;;;20.90;;
56824;SDS011;42705;50.326;18.772;2024-03-07T19:49:29;36.10;;;18.60;;
56824;SDS011;42705;50.326;18.772;2024-03-07T19:54:51;34.90;;;19.50;;
56824;SDS011;42705;50.326;18.772;2024-03-07T20:00:14;40.20;;;21.50;;
56824;SDS011;42705;50.326;18.772;2024-03-07T20:05:37;39.60;;;20.30;;
56824;SDS011;42705;50.326;18.772;2024-03-07T20:10:59;33.70;;;17.40;;
56824;SDS011;42705;50.326;18.772;2024-03-07T20:16:20;36.70;;;19.00;;
56824;SDS011;42705;50.326;18.772;2024-03-07T20:21:42;37.60;;;18.50;;
56824;SDS011;42705;50.326;18.772;2024-03-07T20:27:05;44.60;;;20.40;;
56824;SDS011;42705;50.326;18.772;2024-03-07T20:32:27;39.20;;;21.40;;
56824;SDS011;42705;50.326;18.772;2024-03-07T20:37:49;39.90;;;20.30;;
56824;SDS011;42705;50.326;18.772;2024-03-07T20:43:11;39.90;;;19.40;;
56824;SDS011;42705;50.326;18.772;2024-03-07T20:48:36;29.90;;;16.70;;
56824;SDS011;42705;50.326;18.772;2024-03-07T20:53:58;40.80;;;21.40;;
56824;SDS011;42705;50.326;18.772;2024-03-07T20:59:21;38.10;;;20.30;;
56824;SDS011;42705;50.326;18.772;2024-03-07T21:04:43;43.10;;;20.80;;
56824;SDS011;42705;50.326;18.772;2024-03-07T21:10:06;46.30;;;23.50;;
56824;SDS011;42705;50.326;18.772;2024-03-07T21:15:29;40.30;;;19.90;;
56824;SDS011;42705;50.326;18.772;2024-03-07T21:20:51;47.10;;;22.00;;
56824;SDS011;42705;50.326;18.772;2024-03-07T21:26:13;40.70;;;20.60;;
56824;SDS011;42705;50.326;18.772;2024-03-07T21:31:37;44.80;;;21.10;;
56824;SDS011;42705;50.326;18.772;2024-03-07T21:36:59;48.50;;;22.90;;
56824;SDS011;42705;50.326;18.772;2024-03-07T21:42:21;45.10;;;21.50;;
56824;SDS011;42705;50.326;18.772;2024-03-07T21:47:43;44.30;;;22.10;;
56824;SDS011;42705;50.326;18.772;2024-03-07T21:58:28;45.60;;;23.70;;
56824;SDS011;42705;50.326;18.772;2024-03-07T22:03:50;51.40;;;24.30;;
56824;SDS011;42705;50.326;18.772;2024-03-07T22:09:12;52.10;;;26.20;;
56824;SDS011;42705;50.326;18.772;2024-03-07T22:14:34;48.90;;;26.20;;
56824;SDS011;42705;50.326;18.772;2024-03-07T22:19:59;52.40;;;25.30;;
56824;SDS011;42705;50.326;18.772;2024-03-07T22:25:22;54.60;;;27.10;;
56824;SDS011;42705;50.326;18.772;2024-03-07T22:30:46;60.20;;;27.10;;
56824;SDS011;42705;50.326;18.772;2024-03-07T22:36:08;54.00;;;26.40;;
56824;SDS011;42705;50.326;18.772;2024-03-07T22:41:31;64.00;;;28.90;;
56824;SDS011;42705;50.326;18.772;2024-03-07T22:46:53;59.00;;;26.50;;
56824;SDS011;42705;50.326;18.772;2024-03-07T22:52:15;59.90;;;27.00;;
56824;SDS011;42705;50.326;18.772;2024-03-07T22:57:38;55.00;;;25.30;;
56824;SDS011;42705;50.326;18.772;2024-03-07T23:03:01;71.40;;;34.10;;
56824;SDS011;42705;50.326;18.772;2024-03-07T23:08:27;70.00;;;30.60;;
56824;SDS011;42705;50.326;18.772;2024-03-07T23:13:49;64.50;;;29.70;;
56824;SDS011;42705;50.326;18.772;2024-03-07T23:19:11;58.70;;;26.20;;
56824;SDS011;42705;50.326;18.772;2024-03-07T23:24:34;68.90;;;29.20;;
56824;SDS011;42705;50.326;18.772;2024-03-07T23:29:56;57.90;;;27.30;;
56824;SDS011;42705;50.326;18.772;2024-03-07T23:35:19;60.20;;;27.30;;
56824;SDS011;42705;50.326;18.772;2024-03-07T23:40:41;57.50;;;27.60;;
56824;SDS011;42705;50.326;18.772;2024-03-07T23:46:03;56.70;;;26.10;;
56824;SDS011;42705;50.326;18.772;2024-03-07T23:51:26;55.40;;;26.20;;
56824;SDS011;42705;50.326;18.772;2024-03-07T23:56:47;54.20;;;25.20;;
